Главная страница
METAR-TAF:

METAR-TAF

Аэропорты :

Коутсвилл, Пенсильвания, США

широта: 39-58-44N, долгота: 075-51-56W, высота над уровнем моря: 201 м

Текущие метеонаблюдения

Эта сводка был подготовлена 29 минут назад, в 16:35 UTC
Ветер 5 Узел переменных направлений
Температура -6°C
Влажность 93%
Давление 1029 hPa
Видимость: 16.1 км
небольшая облачность на высоте 1200 фута
Отдельные облака на высоте 3200 фута
Отдельные облака на высоте 4900 фута

METAR: KMQS 181635Z AUTO VRB05KT 10SM FEW012 SCT032 SCT049 M06/M07 A3040 RMK AO2

Время: 12:04 (17:04 UTC)


TAF: отсутствует

Метеонаблюдения и прогнозы для более 4000 аэропортов (сводки METAR и TAF).

Имеющиеся станции представлены на карте желтыми и красными точками.

Чтобы увидеть название станции, наведите на нее мышь.

Затем щелкните, чтобы увидеть метеонаблюдения и метеопрогнозы.

Управление картой: чтобы увеличить масштаб, щелкните зеленые кнопки с черным крестиком; чтобы уменьшить масштаб, щелкните зеленую кнопку с тире; для просмотра соседних карт щелкайте зеленые стрелки.


METAR-TAF: